Time;durP1;ratioP1;P1;durP2;ratioP2;P2;SDS_P1;SDS_P2;PMS_P1;PMS_P2;Temp;Humidity;BMP_temperature;BMP_pressure;BME280_temperature;BME280_humidity;BME280_pressure;Samples;Min_cycle;Max_cycle;Signal;HPM_P1;HPM_P2
2023/11/27 00:01:36;;;;;;;9.40;5.43;;;6.00;91.90;;;;;;763963;186;27072;-92
2023/11/27 00:04:07;;;;;;;17.03;8.20;;;6.00;91.50;;;;;;760914;184;26539;-91
2023/11/27 00:06:57;;;;;;;7.97;5.27;;;6.00;92.50;;;;;;761734;188;26508;-93
2023/11/27 00:09:30;;;;;;;8.70;5.70;;;6.00;92.40;;;;;;762407;184;26590;-91
2023/11/27 00:12:09;;;;;;;11.63;6.47;;;6.10;92.80;;;;;;762467;188;28126;-91
2023/11/27 00:14:42;;;;;;;13.40;7.17;;;6.00;92.10;;;;;;762532;188;26514;-91
2023/11/27 00:17:20;;;;;;;12.70;7.33;;;6.00;92.60;;;;;;762452;188;26550;-91
2023/11/27 00:20:03;;;;;;;10.03;5.40;;;6.00;92.10;;;;;;762507;188;26503;-92
2023/11/27 00:22:34;;;;;;;13.53;5.87;;;6.00;92.30;;;;;;762350;187;26529;-91
2023/11/27 00:25:09;;;;;;;7.70;4.60;;;6.00;92.60;;;;;;764100;186;27078;-91
2023/11/27 00:27:44;;;;;;;9.87;4.43;;;6.00;92.40;;;;;;763949;185;27177;-92
2023/11/27 00:30:11;;;;;;;9.10;4.23;;;6.00;91.70;;;;;;761224;185;26570;-90
2023/11/27 00:32:44;;;;;;;34.13;16.27;;;6.00;91.60;;;;;;760818;184;26554;-91
2023/11/27 00:35:21;;;;;;;22.03;11.63;;;5.90;91.20;;;;;;762345;188;26543;-90
2023/11/27 00:38:01;;;;;;;10.00;5.17;;;5.90;91.40;;;;;;762803;188;26496;-92
2023/11/27 00:40:48;;;;;;;9.63;4.30;;;5.90;91.60;;;;;;764525;186;26573;-91
2023/11/27 00:43:19;;;;;;;6.10;4.03;;;6.00;91.20;;;;;;762458;187;26533;-90
2023/11/27 00:45:46;;;;;;;13.00;7.47;;;6.00;91.40;;;;;;763294;186;27095;-93
2023/11/27 00:48:14;;;;;;;12.57;6.80;;;5.90;91.50;;;;;;763793;188;27053;-90
2023/11/27 00:50:48;;;;;;;8.93;5.60;;;5.90;91.90;;;;;;766149;186;26514;-91
2023/11/27 00:53:15;;;;;;;10.00;5.13;;;5.90;91.80;;;;;;762797;185;27158;-92
2023/11/27 00:55:47;;;;;;;8.57;5.00;;;5.90;91.50;;;;;;763524;187;26583;-90
2023/11/27 00:58:26;;;;;;;5.93;4.27;;;6.00;91.60;;;;;;764184;187;26550;-88
2023/11/27 01:00:55;;;;;;;8.70;5.73;;;6.00;91.20;;;;;;762892;188;27102;-90
2023/11/27 01:03:23;;;;;;;12.37;5.40;;;5.90;90.60;;;;;;763863;188;26594;-89
2023/11/27 01:05:56;;;;;;;10.20;5.73;;;5.90;91.80;;;;;;765119;188;26525;-90
2023/11/27 01:08:24;;;;;;;6.27;4.83;;;6.00;92.00;;;;;;764450;188;26501;-90
2023/11/27 01:10:51;;;;;;;11.17;6.67;;;6.00;91.50;;;;;;762559;184;26498;-90
2023/11/27 01:13:21;;;;;;;9.37;6.20;;;6.00;92.20;;;;;;762022;184;26630;-90
2023/11/27 01:16:00;;;;;;;10.50;5.93;;;6.00;91.90;;;;;;762821;188;27053;-90
2023/11/27 01:18:29;;;;;;;7.13;5.23;;;6.00;91.30;;;;;;763087;188;26554;-90
2023/11/27 01:21:05;;;;;;;9.27;5.50;;;6.00;91.20;;;;;;762033;188;26580;-90
2023/11/27 01:23:46;;;;;;;9.30;5.87;;;6.10;91.50;;;;;;766300;182;26602;-89
2023/11/27 01:26:24;;;;;;;9.20;5.70;;;6.10;91.40;;;;;;743875;191;26569;-90
2023/11/27 01:28:53;;;;;;;10.10;5.93;;;6.10;91.50;;;;;;764757;186;27040;-89
2023/11/27 01:31:20;;;;;;;8.57;6.47;;;6.00;91.20;;;;;;765105;185;26640;-90
2023/11/27 01:33:51;;;;;;;8.77;6.10;;;6.00;91.40;;;;;;774198;183;27007;-90
2023/11/27 01:36:36;;;;;;;;;;;;;;;;;;;;;
2023/11/27 01:39:32;;;;;;;;;;;;;;;;;;;;;
2023/11/27 01:42:12;;;;;;;8.10;5.97;;;6.00;91.90;;;;;;773757;180;26483;-89
2023/11/27 02:01:23;;;;;;;8.77;5.70;;;6.00;91.00;;;;;;758167;182;26522;-91
2023/11/27 02:03:49;;;;;;;9.70;6.30;;;6.00;90.70;;;;;;779215;181;26529;-89
2023/11/27 02:06:16;;;;;;;8.87;6.07;;;6.10;91.60;;;;;;790804;179;26516;-89
2023/11/27 02:08:57;;;;;;;9.30;6.07;;;6.10;91.40;;;;;;790662;179;26439;-89
2023/11/27 02:11:26;;;;;;;11.93;5.80;;;6.10;91.50;;;;;;790873;179;27022;-89
2023/11/27 02:13:59;;;;;;;9.30;7.13;;;6.00;90.80;;;;;;789859;180;26500;-91
2023/11/27 02:16:39;;;;;;;10.93;6.67;;;6.10;91.80;;;;;;788727;180;26562;-90
2023/11/27 02:19:09;;;;;;;8.30;5.37;;;6.10;90.50;;;;;;788686;178;26948;-90
2023/11/27 02:21:37;;;;;;;11.77;6.50;;;6.00;90.60;;;;;;788769;181;26468;-90
2023/11/27 02:24:09;;;;;;;11.13;5.50;;;6.10;91.40;;;;;;788162;177;26476;-89
2023/11/27 02:26:36;;;;;;;11.50;5.90;;;6.00;90.00;;;;;;787807;179;26475;-90
2023/11/27 02:29:33;;;;;;;11.77;6.43;;;6.10;90.70;;;;;;787478;182;26469;-91
2023/11/27 02:32:15;;;;;;;9.90;5.30;;;6.10;91.50;;;;;;786389;179;26442;-91
2023/11/27 02:34:55;;;;;;;11.60;5.87;;;6.10;90.80;;;;;;790172;181;26476;-92
2023/11/27 02:40:15;;;;;;;8.57;5.80;;;6.00;89.60;;;;;;789878;180;26981;-91
2023/11/27 02:42:44;;;;;;;8.20;5.20;;;6.00;90.50;;;;;;787768;176;26511;-91
2023/11/27 02:45:11;;;;;;;10.10;5.70;;;6.00;90.60;;;;;;787969;180;26982;-90
2023/11/27 02:47:40;;;;;;;10.70;7.00;;;6.00;90.70;;;;;;788443;182;26452;-90
2023/11/27 02:50:33;;;;;;;;;;;;;;;;;;;;;
2023/11/27 02:53:05;;;;;;;9.13;5.70;;;6.00;91.70;;;;;;787185;179;26465;-90
2023/11/27 02:55:52;;;;;;;10.13;6.40;;;6.10;90.80;;;;;;789828;179;27008;-90
2023/11/27 02:58:19;;;;;;;11.63;6.77;;;6.00;90.50;;;;;;791101;181;26495;-91
2023/11/27 03:01:01;;;;;;;;;;;;;;;;;;;;;
2023/11/27 03:09:30;;;;;;;;;;;;;;;;;;;;;
2023/11/27 03:12:12;;;;;;;10.37;5.87;;;6.10;91.60;;;;;;800703;176;26448;-92
2023/11/27 03:14:57;;;;;;;9.07;6.03;;;6.00;90.30;;;;;;790610;180;26474;-93
2023/11/27 03:20:20;;;;;;;9.73;4.93;;;6.00;90.30;;;;;;788345;181;26480;-93
2023/11/27 03:23:10;;;;;;;10.57;5.60;;;5.90;89.80;;;;;;792756;177;26499;-93
2023/11/27 03:25:52;;;;;;;10.27;6.53;;;5.90;90.00;;;;;;792325;180;26452;-93
2023/11/27 03:28:44;;;;;;;;;;;;;;;;;;;;;
2023/11/27 03:31:27;;;;;;;;;;;;;;;;;;;;;
2023/11/27 03:36:59;;;;;;;10.63;7.40;;;5.90;90.00;;;;;;786703;180;26460;-93
2023/11/27 03:42:29;;;;;;;15.83;8.10;;;5.90;90.40;;;;;;786695;182;26480;-92
2023/11/27 03:45:11;;;;;;;;;;;;;;;;;;;;;
2023/11/27 04:04:13;;;;;;;10.43;6.37;;;5.80;88.60;;;;;;745173;173;26627;-90
2023/11/27 05:13:10;;;;;;;11.37;6.43;;;5.90;92.30;;;;;;726196;180;26527;-90
2023/11/27 05:15:55;;;;;;;12.20;6.30;;;6.00;93.10;;;;;;758448;188;26492;-90
2023/11/27 05:21:22;;;;;;;8.90;6.50;;;5.90;93.40;;;;;;799105;173;27074;-91
2023/11/27 06:35:55;;;;;;;16.37;9.77;;;5.10;97.30;;;;;;730020;177;26529;-88
2023/11/27 06:41:34;;;;;;;10.40;6.73;;;5.20;97.60;;;;;;773689;181;27043;-89
2023/11/27 06:47:09;;;;;;;18.53;9.00;;;5.00;97.50;;;;;;739506;177;26467;-91
2023/11/27 06:49:56;;;;;;;;;;;;;;;;;;;;;
2023/11/27 06:52:56;;;;;;;14.77;7.97;;;5.00;97.90;;;;;;793877;180;26377;-93
2023/11/27 06:58:30;;;;;;;;;;;;;;;;;;;;;
2023/11/27 07:01:05;;;;;;;18.60;10.50;;;5.00;97.80;;;;;;765925;186;26503;-93
2023/11/27 07:50:42;;;;;;;12.40;8.07;;;4.70;98.10;;;;;;742971;174;27009;-90
2023/11/27 07:53:11;;;;;;;13.83;7.53;;;4.70;98.20;;;;;;795267;177;26785;-90
2023/11/27 07:56:17;;;;;;;13.20;7.60;;;4.70;98.40;;;;;;806340;174;26429;-89
